Wetterdaten: Woche 31.07.17 - 06.08.17 (KW31)
Datum Zeit Temperatur Luftfeuchte Luftdruck Niederschlag Windrichtung Sonnenschein Solar Wind
31.07.2017 00:00 16,8 C 95 % 1012,9 hPa 0,4 l/m N-NO 0,00 h 0 W/m 4,2 km/h (1 Bft)
31.07.2017 01:00 16,3 C 97 % 1012,7 hPa 0,0 l/m S-SW 0,00 h 0 W/m 8,5 km/h (2 Bft)
31.07.2017 02:00 16,3 C 97 % 1012,2 hPa 0,0 l/m S-SW 0,00 h 0 W/m 2,1 km/h (1 Bft)
31.07.2017 03:00 16,1 C 98 % 1012,3 hPa 0,0 l/m N 0,00 h 0 W/m 0,0 km/h (0 Bft)
31.07.2017 04:00 15,7 C 98 % 1012,3 hPa 0,0 l/m N 0,00 h 0 W/m 0,0 km/h (0 Bft)
31.07.2017 05:00 15,1 C 98 % 1012,4 hPa 0,0 l/m N 0,00 h 0 W/m 0,0 km/h (0 Bft)
31.07.2017 06:00 15,0 C 99 % 1012,8 hPa 0,0 l/m N 0,08 h 33 W/m 0,0 km/h (0 Bft)
31.07.2017 07:00 15,9 C 99 % 1013,2 hPa 0,0 l/m N 0,42 h 120 W/m 0,5 km/h (0 Bft)
31.07.2017 08:00 18,0 C 97 % 1013,3 hPa 0,0 l/m S-SW 0,83 h 338 W/m 5,5 km/h (1 Bft)
31.07.2017 09:00 20,8 C 87 % 1013,3 hPa 0,0 l/m SO 0,75 h 400 W/m 5,5 km/h (1 Bft)
31.07.2017 10:00 22,3 C 80 % 1013,7 hPa 0,0 l/m S 0,67 h 464 W/m 10,6 km/h (2 Bft)
31.07.2017 11:00 21,9 C 80 % 1013,7 hPa 0,0 l/m S-SW 0,08 h 331 W/m 17,8 km/h (3 Bft)
31.07.2017 12:00 22,9 C 75 % 1013,1 hPa 0,0 l/m SW 0,50 h 523 W/m 5,1 km/h (1 Bft)
31.07.2017 13:00 25,6 C 62 % 1012,9 hPa 0,0 l/m SW 0,92 h 822 W/m 9,5 km/h (2 Bft)
31.07.2017 14:00 27,2 C 57 % 1012,8 hPa 0,0 l/m O-NO 0,67 h 671 W/m 7,2 km/h (2 Bft)
31.07.2017 15:00 27,2 C 56 % 1013,0 hPa 0,0 l/m N 0,42 h 425 W/m 1,7 km/h (1 Bft)
31.07.2017 16:00 26,6 C 60 % 1012,8 hPa 0,0 l/m O 0,08 h 233 W/m 7,6 km/h (2 Bft)
31.07.2017 17:00 26,8 C 61 % 1012,2 hPa 0,0 l/m O 0,08 h 245 W/m 9,3 km/h (2 Bft)
31.07.2017 18:00 26,8 C 60 % 1011,5 hPa 0,0 l/m O 0,33 h 207 W/m 10,2 km/h (2 Bft)
31.07.2017 19:00 26,4 C 63 % 1011,3 hPa 0,0 l/m O 0,75 h 148 W/m 9,0 km/h (2 Bft)
31.07.2017 20:00 24,7 C 68 % 1011,0 hPa 0,0 l/m O 0,33 h 29 W/m 7,1 km/h (2 Bft)
31.07.2017 21:00 22,4 C 79 % 1010,9 hPa 0,0 l/m O 0,00 h 0 W/m 5,5 km/h (1 Bft)
31.07.2017 22:00 20,6 C 86 % 1010,8 hPa 0,0 l/m N 0,00 h 0 W/m 0,9 km/h (0 Bft)
31.07.2017 23:00 19,6 C 90 % 1010,7 hPa 0,0 l/m O 0,00 h 0 W/m 1,1 km/h (0 Bft)
01.08.2017 00:00 18,6 C 93 % 1010,3 hPa 0,0 l/m N 0,00 h 0 W/m 0,1 km/h (0 Bft)
01.08.2017 01:00 18,0 C 95 % 1010,3 hPa 0,0 l/m O 0,00 h 0 W/m 2,4 km/h (1 Bft)
01.08.2017 02:00 17,9 C 95 % 1010,7 hPa 0,0 l/m O-NO 0,00 h 0 W/m 1,6 km/h (1 Bft)
01.08.2017 03:00 16,8 C 96 % 1010,9 hPa 0,0 l/m N 0,00 h 0 W/m 0,7 km/h (0 Bft)
01.08.2017 04:00 16,6 C 97 % 1011,3 hPa 0,0 l/m O-NO 0,00 h 0 W/m 1,3 km/h (1 Bft)
01.08.2017 05:00 16,2 C 97 % 1011,7 hPa 0,0 l/m N 0,00 h 5 W/m 0,0 km/h (0 Bft)
01.08.2017 06:00 16,0 C 98 % 1011,9 hPa 0,0 l/m O-NO 0,17 h 32 W/m 0,5 km/h (0 Bft)
01.08.2017 07:00 17,8 C 97 % 1012,9 hPa 0,0 l/m N-NO 1,00 h 209 W/m 9,7 km/h (2 Bft)
01.08.2017 08:00 20,4 C 88 % 1013,3 hPa 0,0 l/m N 0,33 h 185 W/m 7,0 km/h (2 Bft)
01.08.2017 09:00 22,3 C 81 % 1013,1 hPa 0,0 l/m NO 0,75 h 389 W/m 14,4 km/h (3 Bft)
01.08.2017 10:00 23,8 C 76 % 1013,0 hPa 0,0 l/m O-NO 0,83 h 558 W/m 17,3 km/h (3 Bft)
01.08.2017 11:00 25,3 C 72 % 1012,6 hPa 0,0 l/m NO 1,00 h 773 W/m 15,8 km/h (3 Bft)
01.08.2017 12:00 27,2 C 66 % 1012,1 hPa 0,0 l/m O-NO 1,00 h 825 W/m 16,4 km/h (3 Bft)
01.08.2017 13:00 28,5 C 61 % 1011,4 hPa 0,0 l/m NO 0,92 h 755 W/m 15,7 km/h (3 Bft)
01.08.2017 14:00 30,1 C 57 % 1010,8 hPa 0,0 l/m O-NO 1,00 h 776 W/m 14,0 km/h (3 Bft)
01.08.2017 15:00 31,1 C 54 % 1010,5 hPa 0,0 l/m NO 1,00 h 696 W/m 9,4 km/h (2 Bft)
01.08.2017 16:00 31,1 C 54 % 1010,4 hPa 0,0 l/m N 0,75 h 474 W/m 8,7 km/h (2 Bft)
01.08.2017 17:00 30,4 C 54 % 1010,3 hPa 0,0 l/m N 0,42 h 277 W/m 11,8 km/h (2 Bft)
01.08.2017 18:00 27,7 C 61 % 1011,1 hPa 0,0 l/m N 0,00 h 32 W/m 14,2 km/h (3 Bft)
01.08.2017 19:00 22,4 C 79 % 1013,3 hPa 6,2 l/m N-NO 0,00 h 8 W/m 12,7 km/h (3 Bft)
01.08.2017 20:00 19,1 C 93 % 1012,6 hPa 0,2 l/m SW 0,08 h 21 W/m 4,4 km/h (1 Bft)
01.08.2017 21:00 18,7 C 96 % 1012,9 hPa 0,0 l/m W 0,00 h 0 W/m 3,5 km/h (1 Bft)
01.08.2017 22:00 19,5 C 96 % 1015,2 hPa 0,0 l/m N-NO 0,00 h 0 W/m 12,7 km/h (3 Bft)
01.08.2017 23:00 19,4 C 95 % 1015,0 hPa 0,0 l/m N-NO 0,00 h 0 W/m 3,2 km/h (1 Bft)
02.08.2017 00:00 19,2 C 96 % 1015,2 hPa 0,0 l/m N-NO 0,00 h 0 W/m 2,8 km/h (1 Bft)
02.08.2017 01:00 19,1 C 97 % 1015,8 hPa 0,0 l/m N-NO 0,00 h 0 W/m 5,8 km/h (1 Bft)
02.08.2017 02:00 19,1 C 97 % 1015,8 hPa 0,0 l/m O 0,00 h 0 W/m 5,8 km/h (2 Bft)
02.08.2017 03:00 18,9 C 97 % 1016,7 hPa 4,0 l/m O 0,00 h 0 W/m 10,5 km/h (2 Bft)
02.08.2017 04:00 18,4 C 98 % 1016,2 hPa 0,2 l/m O-SO 0,00 h 0 W/m 1,6 km/h (1 Bft)
02.08.2017 05:00 18,0 C 98 % 1015,9 hPa 0,0 l/m O-SO 0,00 h 0 W/m 2,0 km/h (1 Bft)
02.08.2017 06:00 17,7 C 99 % 1016,1 hPa 0,0 l/m N 0,08 h 31 W/m 0,3 km/h (0 Bft)
02.08.2017 07:00 18,4 C 99 % 1016,3 hPa 0,0 l/m N 0,75 h 153 W/m 0,0 km/h (0 Bft)
02.08.2017 08:00 19,6 C 98 % 1016,5 hPa 0,0 l/m O-SO 0,50 h 254 W/m 1,5 km/h (1 Bft)
02.08.2017 09:00 20,7 C 95 % 1016,9 hPa 0,0 l/m SW 0,58 h 365 W/m 6,6 km/h (2 Bft)
02.08.2017 10:00 22,1 C 91 % 1017,0 hPa 0,0 l/m SW 0,33 h 350 W/m 10,2 km/h (2 Bft)
02.08.2017 11:00 24,0 C 86 % 1017,0 hPa 0,0 l/m W 0,83 h 670 W/m 9,9 km/h (2 Bft)
02.08.2017 12:00 25,9 C 76 % 1016,7 hPa 0,0 l/m SW 1,00 h 811 W/m 15,6 km/h (3 Bft)
02.08.2017 13:00 27,1 C 68 % 1016,2 hPa 0,0 l/m W 0,83 h 741 W/m 16,9 km/h (3 Bft)
02.08.2017 14:00 28,2 C 62 % 1015,9 hPa 0,0 l/m W-SW 0,92 h 753 W/m 18,6 km/h (3 Bft)
02.08.2017 15:00 28,7 C 61 % 1015,6 hPa 0,0 l/m W 0,92 h 724 W/m 16,5 km/h (3 Bft)
02.08.2017 16:00 29,0 C 58 % 1015,2 hPa 0,0 l/m W 1,00 h 590 W/m 15,4 km/h (3 Bft)
02.08.2017 17:00 29,2 C 56 % 1014,9 hPa 0,0 l/m W-SW 1,00 h 427 W/m 13,6 km/h (3 Bft)
02.08.2017 18:00 28,5 C 58 % 1014,5 hPa 0,0 l/m W-SW 0,83 h 269 W/m 10,3 km/h (2 Bft)
02.08.2017 19:00 27,1 C 66 % 1014,1 hPa 0,0 l/m W-SW 0,42 h 114 W/m 2,5 km/h (1 Bft)
02.08.2017 20:00 24,0 C 80 % 1014,1 hPa 0,0 l/m N 0,00 h 18 W/m 0,0 km/h (0 Bft)
02.08.2017 21:00 21,7 C 89 % 1014,5 hPa 0,0 l/m N 0,00 h 0 W/m 0,0 km/h (0 Bft)
02.08.2017 22:00 20,6 C 91 % 1014,6 hPa 0,0 l/m N 0,00 h 0 W/m 0,1 km/h (0 Bft)
02.08.2017 23:00 20,0 C 93 % 1014,5 hPa 0,0 l/m N 0,00 h 0 W/m 0,0 km/h (0 Bft)
03.08.2017 00:00 19,3 C 95 % 1014,2 hPa 0,0 l/m N 0,00 h 0 W/m 0,0 km/h (0 Bft)
03.08.2017 01:00 18,8 C 96 % 1013,9 hPa 0,0 l/m N 0,00 h 0 W/m 0,0 km/h (0 Bft)
03.08.2017 02:00 18,3 C 97 % 1013,2 hPa 0,0 l/m N 0,00 h 0 W/m 0,0 km/h (0 Bft)
03.08.2017 03:00 18,1 C 97 % 1012,8 hPa 0,0 l/m N 0,00 h 0 W/m 0,0 km/h (0 Bft)
03.08.2017 04:00 17,9 C 98 % 1012,5 hPa 0,0 l/m N 0,00 h 0 W/m 0,0 km/h (0 Bft)
03.08.2017 05:00 18,0 C 98 % 1012,3 hPa 0,0 l/m W-SW 0,00 h 0 W/m 3,3 km/h (1 Bft)
03.08.2017 06:00 18,0 C 97 % 1012,0 hPa 0,0 l/m N 0,00 h 22 W/m 0,0 km/h (0 Bft)
03.08.2017 07:00 19,4 C 95 % 1012,0 hPa 0,0 l/m W-SW 0,92 h 169 W/m 0,9 km/h (0 Bft)
03.08.2017 08:00 23,2 C 82 % 1012,5 hPa 0,0 l/m W-SW 0,58 h 296 W/m 4,0 km/h (1 Bft)
03.08.2017 09:00 24,5 C 78 % 1013,0 hPa 0,0 l/m W-SW 0,42 h 276 W/m 6,6 km/h (2 Bft)
03.08.2017 10:00 23,6 C 84 % 1013,2 hPa 0,0 l/m W-SW 0,00 h 118 W/m 5,5 km/h (1 Bft)
03.08.2017 11:00 25,0 C 78 % 1013,0 hPa 0,0 l/m SW 0,92 h 567 W/m 14,6 km/h (3 Bft)
03.08.2017 12:00 27,8 C 65 % 1012,4 hPa 0,0 l/m W 1,00 h 818 W/m 19,6 km/h (3 Bft)
03.08.2017 13:00 29,5 C 54 % 1011,9 hPa 0,0 l/m W-SW 1,00 h 789 W/m 23,4 km/h (4 Bft)
03.08.2017 14:00 29,8 C 55 % 1011,4 hPa 0,0 l/m W-SW 0,75 h 653 W/m 24,1 km/h (4 Bft)
03.08.2017 15:00 29,5 C 56 % 1011,1 hPa 0,0 l/m W-SW 0,67 h 476 W/m 20,0 km/h (4 Bft)
03.08.2017 16:00 29,5 C 57 % 1010,6 hPa 0,0 l/m W-SW 0,67 h 371 W/m 12,1 km/h (2 Bft)
03.08.2017 17:00 28,8 C 60 % 1010,3 hPa 0,0 l/m O-NO 0,58 h 316 W/m 9,1 km/h (2 Bft)
03.08.2017 18:00 27,0 C 71 % 1010,6 hPa 0,0 l/m N-NO 0,33 h 167 W/m 11,5 km/h (2 Bft)
03.08.2017 19:00 25,9 C 74 % 1010,6 hPa 0,0 l/m N-NO 0,75 h 141 W/m 5,1 km/h (1 Bft)
03.08.2017 20:00 24,7 C 80 % 1010,7 hPa 0,0 l/m N 0,08 h 27 W/m 1,1 km/h (0 Bft)
03.08.2017 21:00 23,1 C 88 % 1010,9 hPa 0,0 l/m N 0,00 h 0 W/m 0,1 km/h (0 Bft)
03.08.2017 22:00 22,3 C 90 % 1011,2 hPa 0,0 l/m N 0,00 h 0 W/m 0,0 km/h (0 Bft)
03.08.2017 23:00 21,8 C 91 % 1011,3 hPa 0,0 l/m N 0,00 h 0 W/m 0,0 km/h (0 Bft)
04.08.2017 00:00 21,5 C 92 % 1011,2 hPa 0,0 l/m N 0,00 h 0 W/m 0,0 km/h (0 Bft)
04.08.2017 01:00 21,0 C 94 % 1011,2 hPa 0,0 l/m N 0,00 h 0 W/m 0,0 km/h (0 Bft)
04.08.2017 02:00 20,8 C 96 % 1011,2 hPa 0,6 l/m N-NW 0,00 h 0 W/m 1,5 km/h (1 Bft)
04.08.2017 03:00 20,3 C 95 % 1011,1 hPa 3,0 l/m W 0,00 h 0 W/m 10,3 km/h (2 Bft)
04.08.2017 04:00 19,4 C 95 % 1011,2 hPa 7,0 l/m W-NW 0,00 h 0 W/m 11,3 km/h (2 Bft)
04.08.2017 05:00 19,1 C 97 % 1010,9 hPa 0,0 l/m N 0,00 h 0 W/m 0,5 km/h (0 Bft)
04.08.2017 06:00 19,1 C 98 % 1011,2 hPa 0,0 l/m NW 0,00 h 15 W/m 3,1 km/h (1 Bft)
04.08.2017 07:00 19,6 C 98 % 1011,6 hPa 0,0 l/m W-NW 0,00 h 31 W/m 1,6 km/h (1 Bft)
04.08.2017 08:00 20,3 C 98 % 1011,7 hPa 0,0 l/m SW 0,00 h 101 W/m 4,7 km/h (1 Bft)
04.08.2017 09:00 21,1 C 97 % 1011,7 hPa 0,0 l/m S-SW 0,00 h 231 W/m 11,7 km/h (2 Bft)
04.08.2017 10:00 21,9 C 91 % 1011,8 hPa 0,0 l/m S-SW 0,00 h 308 W/m 9,9 km/h (2 Bft)
04.08.2017 11:00 22,4 C 83 % 1011,9 hPa 0,0 l/m W-SW 0,33 h 398 W/m 12,5 km/h (3 Bft)
04.08.2017 12:00 23,4 C 76 % 1011,9 hPa 0,0 l/m W-SW 0,42 h 486 W/m 17,2 km/h (3 Bft)
04.08.2017 13:00 24,6 C 72 % 1011,7 hPa 0,0 l/m W 0,92 h 623 W/m 19,3 km/h (3 Bft)
04.08.2017 14:00 24,9 C 68 % 1011,6 hPa 0,0 l/m W-SW 0,50 h 452 W/m 16,4 km/h (3 Bft)
04.08.2017 15:00 25,1 C 66 % 1011,5 hPa 0,0 l/m W-SW 0,58 h 435 W/m 15,6 km/h (3 Bft)
04.08.2017 16:00 25,4 C 67 % 1011,3 hPa 0,0 l/m W-SW 0,50 h 358 W/m 14,5 km/h (3 Bft)
04.08.2017 17:00 25,1 C 68 % 1011,3 hPa 0,0 l/m W-SW 0,08 h 265 W/m 15,3 km/h (3 Bft)
04.08.2017 18:00 24,8 C 71 % 1011,4 hPa 0,0 l/m W-SW 0,08 h 142 W/m 10,7 km/h (2 Bft)
04.08.2017 19:00 23,6 C 66 % 1012,0 hPa 0,0 l/m N 0,25 h 101 W/m 11,4 km/h (2 Bft)
04.08.2017 20:00 21,5 C 73 % 1012,5 hPa 0,0 l/m N 0,17 h 22 W/m 6,6 km/h (2 Bft)
04.08.2017 21:00 20,7 C 75 % 1013,2 hPa 0,0 l/m N 0,00 h 0 W/m 2,8 km/h (1 Bft)
04.08.2017 22:00 20,3 C 80 % 1013,5 hPa 0,0 l/m N 0,00 h 0 W/m 0,0 km/h (0 Bft)
04.08.2017 23:00 20,2 C 82 % 1013,9 hPa 0,0 l/m N 0,00 h 0 W/m 0,0 km/h (0 Bft)
05.08.2017 00:00 19,3 C 84 % 1013,9 hPa 0,0 l/m N 0,00 h 0 W/m 0,0 km/h (0 Bft)
05.08.2017 01:00 18,6 C 87 % 1013,7 hPa 0,0 l/m N 0,00 h 0 W/m 0,0 km/h (0 Bft)
05.08.2017 02:00 17,8 C 85 % 1013,7 hPa 0,0 l/m N 0,00 h 0 W/m 0,0 km/h (0 Bft)
05.08.2017 03:00 16,8 C 86 % 1013,8 hPa 0,0 l/m N 0,00 h 0 W/m 0,0 km/h (0 Bft)
05.08.2017 04:00 16,1 C 91 % 1013,6 hPa 0,0 l/m N 0,00 h 0 W/m 0,0 km/h (0 Bft)
05.08.2017 05:00 15,6 C 94 % 1013,1 hPa 0,0 l/m N 0,00 h 0 W/m 0,0 km/h (0 Bft)
05.08.2017 06:00 14,9 C 94 % 1013,0 hPa 0,0 l/m N 0,42 h 33 W/m 0,0 km/h (0 Bft)
05.08.2017 07:00 17,2 C 89 % 1013,1 hPa 0,0 l/m N 0,92 h 174 W/m 0,0 km/h (0 Bft)
05.08.2017 08:00 20,0 C 74 % 1013,2 hPa 0,0 l/m N 0,75 h 275 W/m 0,9 km/h (0 Bft)
05.08.2017 09:00 20,5 C 77 % 1013,3 hPa 0,0 l/m NO 0,17 h 236 W/m 6,7 km/h (2 Bft)
05.08.2017 10:00 23,0 C 72 % 1013,1 hPa 0,0 l/m SW 0,83 h 532 W/m 14,8 km/h (3 Bft)
05.08.2017 11:00 24,7 C 67 % 1012,8 hPa 0,0 l/m W 1,00 h 763 W/m 17,7 km/h (3 Bft)
05.08.2017 12:00 25,9 C 63 % 1012,8 hPa 0,0 l/m W-SW 1,00 h 842 W/m 25,6 km/h (4 Bft)
05.08.2017 13:00 26,4 C 62 % 1012,5 hPa 0,0 l/m W-SW 0,92 h 836 W/m 24,3 km/h (4 Bft)
05.08.2017 14:00 26,9 C 60 % 1012,3 hPa 0,0 l/m W-SW 0,75 h 795 W/m 23,3 km/h (4 Bft)
05.08.2017 15:00 27,1 C 59 % 1012,2 hPa 0,0 l/m W 0,50 h 488 W/m 17,7 km/h (3 Bft)
05.08.2017 16:00 26,9 C 60 % 1011,9 hPa 0,0 l/m W 0,50 h 426 W/m 19,4 km/h (3 Bft)
05.08.2017 17:00 26,7 C 61 % 1011,6 hPa 0,0 l/m W 0,33 h 297 W/m 12,9 km/h (3 Bft)
05.08.2017 18:00 26,2 C 62 % 1011,5 hPa 0,0 l/m W 0,50 h 179 W/m 14,4 km/h (3 Bft)
05.08.2017 19:00 25,1 C 65 % 1011,9 hPa 0,0 l/m W-NW 0,33 h 79 W/m 14,5 km/h (3 Bft)
05.08.2017 20:00 23,6 C 66 % 1012,6 hPa 0,0 l/m W-NW 0,25 h 22 W/m 14,6 km/h (3 Bft)
05.08.2017 21:00 21,3 C 78 % 1013,8 hPa 0,0 l/m N 0,00 h 0 W/m 14,9 km/h (3 Bft)
05.08.2017 22:00 19,7 C 79 % 1014,7 hPa 0,0 l/m N 0,00 h 0 W/m 21,2 km/h (4 Bft)
05.08.2017 23:00 18,2 C 74 % 1015,5 hPa 0,0 l/m N-NW 0,00 h 0 W/m 16,4 km/h (3 Bft)
06.08.2017 00:00 17,7 C 69 % 1016,2 hPa 0,0 l/m N 0,00 h 0 W/m 9,5 km/h (2 Bft)
06.08.2017 01:00 16,2 C 81 % 1016,5 hPa 1,6 l/m N 0,00 h 0 W/m 5,0 km/h (1 Bft)
06.08.2017 02:00 14,7 C 92 % 1017,2 hPa 1,4 l/m N 0,00 h 0 W/m 1,5 km/h (1 Bft)
06.08.2017 03:00 14,1 C 94 % 1017,5 hPa 0,8 l/m N 0,00 h 0 W/m 0,0 km/h (0 Bft)
06.08.2017 04:00 14,1 C 95 % 1017,4 hPa 0,0 l/m N 0,00 h 0 W/m 0,0 km/h (0 Bft)
06.08.2017 05:00 13,9 C 96 % 1017,6 hPa 0,6 l/m N 0,00 h 0 W/m 0,0 km/h (0 Bft)
06.08.2017 06:00 13,8 C 96 % 1017,9 hPa 1,8 l/m N 0,00 h 12 W/m 0,7 km/h (0 Bft)
06.08.2017 07:00 13,9 C 97 % 1018,3 hPa 0,0 l/m N 0,00 h 43 W/m 0,9 km/h (0 Bft)
06.08.2017 08:00 14,8 C 97 % 1018,3 hPa 0,0 l/m N 0,00 h 151 W/m 3,6 km/h (1 Bft)
06.08.2017 09:00 15,5 C 93 % 1018,7 hPa 0,0 l/m N 0,00 h 170 W/m 7,0 km/h (2 Bft)
06.08.2017 10:00 16,4 C 87 % 1018,7 hPa 0,0 l/m NO 0,33 h 343 W/m 7,8 km/h (2 Bft)
06.08.2017 11:00 17,7 C 78 % 1019,1 hPa 0,0 l/m O-NO 0,17 h 363 W/m 9,0 km/h (2 Bft)
06.08.2017 12:00 18,2 C 76 % 1019,1 hPa 0,0 l/m O-NO 0,00 h 331 W/m 6,8 km/h (2 Bft)
06.08.2017 13:00 19,0 C 73 % 1018,9 hPa 0,0 l/m O 0,50 h 460 W/m 11,0 km/h (2 Bft)
06.08.2017 14:00 19,1 C 71 % 1018,8 hPa 0,0 l/m O-SO 0,17 h 337 W/m 6,4 km/h (2 Bft)
06.08.2017 15:00 19,4 C 69 % 1018,8 hPa 0,0 l/m O 0,17 h 305 W/m 7,5 km/h (2 Bft)
06.08.2017 16:00 20,2 C 66 % 1018,9 hPa 0,0 l/m O-NO 0,50 h 499 W/m 7,0 km/h (2 Bft)
06.08.2017 17:00 21,6 C 60 % 1018,9 hPa 0,0 l/m O-SO 1,00 h 497 W/m 8,4 km/h (2 Bft)
06.08.2017 18:00 20,8 C 62 % 1019,3 hPa 0,0 l/m O-SO 0,50 h 260 W/m 5,8 km/h (1 Bft)
06.08.2017 19:00 20,3 C 64 % 1019,1 hPa 0,0 l/m O-SO 0,58 h 132 W/m 4,8 km/h (1 Bft)
06.08.2017 20:00 18,1 C 78 % 1019,4 hPa 0,0 l/m N 0,00 h 17 W/m 0,5 km/h (0 Bft)
06.08.2017 21:00 15,6 C 89 % 1020,0 hPa 0,0 l/m N 0,00 h 0 W/m 0,0 km/h (0 Bft)
06.08.2017 22:00 14,5 C 93 % 1020,1 hPa 0,0 l/m N 0,00 h 0 W/m 0,0 km/h (0 Bft)
06.08.2017 23:00 13,7 C 95 % 1019,9 hPa 0,0 l/m N 0,00 h 0 W/m 0,0 km/h (0 Bft)
Min-Datum _ 06.08.17 31.07.17 01.08.17 - - - - 31.07.17
_ Min-Zeit 23:50 15:35 18:05 - - - - 00:00
Minimum _ 13,5 C 50 % 1010,0 hPa - - - - 0,0 km/h (0 Bft)
Max-Datum _ 01.08.17 31.07.17 06.08.17 04.08.17 - 31.07.17 05.08.17 01.08.17
_ Max-Zeit 15:55 06:05 21:40 04:30 - 06:55 14:30 19:15
Maximum _ 31,7 C 99 % 1020,3 hPa 7,0 l/m - 0,08 h 1097 W/m 35,4 km/h
O (5 Bft)
Durchschnitt _ 21,4 C 81 % 1013,6 hPa #27,8 l/m W-SW #51:45 h 343 W/m 7,2 km/h (2 Bft)